sensor_id;sensor_type;location;lat;lon;timestamp;pressure;altitude;pressure_sealevel;temperature;humidity
46614;BME280;32338;50.430;6.806;2023-02-21T00:02:15;65692.09;;;2.48;100.00
46614;BME280;32338;50.430;6.806;2023-02-21T00:04:59;65681.69;;;2.40;100.00
46614;BME280;32338;50.430;6.806;2023-02-21T00:07:43;65675.94;;;2.40;100.00
46614;BME280;32338;50.430;6.806;2023-02-21T00:10:27;65681.91;;;2.43;100.00
46614;BME280;32338;50.430;6.806;2023-02-21T00:13:11;65687.34;;;2.53;100.00
46614;BME280;32338;50.430;6.806;2023-02-21T00:15:57;65696.44;;;2.56;100.00
46614;BME280;32338;50.430;6.806;2023-02-21T00:18:41;65678.31;;;2.37;100.00
46614;BME280;32338;50.430;6.806;2023-02-21T00:21:27;65654.47;;;2.18;100.00
46614;BME280;32338;50.430;6.806;2023-02-21T00:24:12;65655.06;;;2.18;100.00
46614;BME280;32338;50.430;6.806;2023-02-21T00:26:56;65653.72;;;2.15;100.00
46614;BME280;32338;50.430;6.806;2023-02-21T00:29:40;65635.47;;;2.00;100.00
46614;BME280;32338;50.430;6.806;2023-02-21T00:32:25;65645.34;;;2.07;100.00
46614;BME280;32338;50.430;6.806;2023-02-21T00:35:10;65659.88;;;2.20;100.00
46614;BME280;32338;50.430;6.806;2023-02-21T00:37:54;65632.69;;;1.98;100.00
46614;BME280;32338;50.430;6.806;2023-02-21T00:40:38;65637.16;;;2.02;100.00
46614;BME280;32338;50.430;6.806;2023-02-21T00:43:27;65615.91;;;1.82;100.00
46614;BME280;32338;50.430;6.806;2023-02-21T00:46:11;65611.78;;;1.76;100.00
46614;BME280;32338;50.430;6.806;2023-02-21T00:48:57;65604.75;;;1.72;100.00
46614;BME280;32338;50.430;6.806;2023-02-21T00:51:41;65600.63;;;1.66;100.00
46614;BME280;32338;50.430;6.806;2023-02-21T00:54:25;65610.47;;;1.72;100.00
46614;BME280;32338;50.430;6.806;2023-02-21T00:57:09;65612.00;;;1.78;100.00
46614;BME280;32338;50.430;6.806;2023-02-21T00:59:53;65608.66;;;1.75;100.00
46614;BME280;32338;50.430;6.806;2023-02-21T01:02:37;65606.63;;;1.76;100.00
46614;BME280;32338;50.430;6.806;2023-02-21T01:05:22;65617.94;;;1.82;100.00
46614;BME280;32338;50.430;6.806;2023-02-21T01:08:06;65616.06;;;1.77;100.00
46614;BME280;32338;50.430;6.806;2023-02-21T01:10:50;65605.09;;;1.70;100.00
46614;BME280;32338;50.430;6.806;2023-02-21T01:13:35;65584.84;;;1.56;100.00
46614;BME280;32338;50.430;6.806;2023-02-21T01:16:18;65576.03;;;1.43;100.00
46614;BME280;32338;50.430;6.806;2023-02-21T01:19:03;65551.66;;;1.23;100.00
46614;BME280;32338;50.430;6.806;2023-02-21T01:21:48;65541.25;;;1.16;100.00
46614;BME280;32338;50.430;6.806;2023-02-21T01:24:32;65558.38;;;1.29;100.00
46614;BME280;32338;50.430;6.806;2023-02-21T01:27:16;65568.75;;;1.36;100.00
46614;BME280;32338;50.430;6.806;2023-02-21T01:30:00;65571.91;;;1.37;100.00
46614;BME280;32338;50.430;6.806;2023-02-21T01:32:44;65567.63;;;1.35;100.00
46614;BME280;32338;50.430;6.806;2023-02-21T01:35:28;65560.03;;;1.31;100.00
46614;BME280;32338;50.430;6.806;2023-02-21T01:38:13;65566.75;;;1.37;100.00
46614;BME280;32338;50.430;6.806;2023-02-21T01:40:57;65569.66;;;1.35;100.00
46614;BME280;32338;50.430;6.806;2023-02-21T01:43:56;65568.22;;;1.36;100.00
46614;BME280;32338;50.430;6.806;2023-02-21T01:46:41;65580.50;;;1.47;100.00
46614;BME280;32338;50.430;6.806;2023-02-21T01:49:25;65579.94;;;1.47;100.00
46614;BME280;32338;50.430;6.806;2023-02-21T01:52:09;65572.53;;;1.44;100.00
46614;BME280;32338;50.430;6.806;2023-02-21T01:54:55;65571.22;;;1.41;100.00
46614;BME280;32338;50.430;6.806;2023-02-21T01:57:39;65575.47;;;1.42;100.00
46614;BME280;32338;50.430;6.806;2023-02-21T02:00:24;65569.88;;;1.37;100.00
46614;BME280;32338;50.430;6.806;2023-02-21T02:03:11;65554.78;;;1.23;100.00
46614;BME280;32338;50.430;6.806;2023-02-21T02:05:58;65555.13;;;1.21;100.00
46614;BME280;32338;50.430;6.806;2023-02-21T02:08:43;65554.47;;;1.25;100.00
46614;BME280;32338;50.430;6.806;2023-02-21T02:12:01;65552.22;;;1.23;100.00
46614;BME280;32338;50.430;6.806;2023-02-21T02:15:02;65548.31;;;1.20;100.00
46614;BME280;32338;50.430;6.806;2023-02-21T02:17:39;65553.69;;;1.22;100.00
46614;BME280;32338;50.430;6.806;2023-02-21T02:20:31;65556.47;;;1.25;100.00
46614;BME280;32338;50.430;6.806;2023-02-21T02:26:35;65577.91;;;1.47;100.00
46614;BME280;32338;50.430;6.806;2023-02-21T02:29:25;65602.28;;;1.67;100.00
46614;BME280;32338;50.430;6.806;2023-02-21T02:32:30;65612.78;;;1.82;100.00
46614;BME280;32338;50.430;6.806;2023-02-21T02:35:03;65625.41;;;1.91;100.00
46614;BME280;32338;50.430;6.806;2023-02-21T02:37:35;65638.84;;;2.03;100.00
46614;BME280;32338;50.430;6.806;2023-02-21T02:40:09;65645.34;;;2.07;100.00
46614;BME280;32338;50.430;6.806;2023-02-21T02:42:48;65640.66;;;2.00;100.00
46614;BME280;32338;50.430;6.806;2023-02-21T02:45:24;65633.81;;;1.99;100.00
46614;BME280;32338;50.430;6.806;2023-02-21T02:47:56;65647.56;;;2.09;100.00
46614;BME280;32338;50.430;6.806;2023-02-21T02:50:27;65638.84;;;2.03;100.00
46614;BME280;32338;50.430;6.806;2023-02-21T02:53:00;65625.56;;;1.86;100.00
46614;BME280;32338;50.430;6.806;2023-02-21T02:55:35;65599.84;;;1.62;100.00
46614;BME280;32338;50.430;6.806;2023-02-21T02:58:05;65588.13;;;1.52;100.00
46614;BME280;32338;50.430;6.806;2023-02-21T03:00:35;65553.69;;;1.22;100.00
46614;BME280;32338;50.430;6.806;2023-02-21T03:03:19;65532.47;;;1.03;100.00
46614;BME280;32338;50.430;6.806;2023-02-21T03:06:00;65523.50;;;0.94;100.00
46614;BME280;32338;50.430;6.806;2023-02-21T03:08:35;65519.81;;;0.93;100.00
46614;BME280;32338;50.430;6.806;2023-02-21T03:11:09;65531.88;;;1.02;100.00
46614;BME280;32338;50.430;6.806;2023-02-21T03:13:42;65542.28;;;1.09;100.00
46614;BME280;32338;50.430;6.806;2023-02-21T03:16:17;65548.78;;;1.13;100.00
46614;BME280;32338;50.430;6.806;2023-02-21T03:18:47;65549.75;;;1.19;100.00
46614;BME280;32338;50.430;6.806;2023-02-21T03:21:19;65553.88;;;1.25;100.00
46614;BME280;32338;50.430;6.806;2023-02-21T03:23:50;65553.88;;;1.25;100.00
46614;BME280;32338;50.430;6.806;2023-02-21T03:26:18;65546.97;;;1.16;100.00
46614;BME280;32338;50.430;6.806;2023-02-21T03:28:45;65531.88;;;1.02;100.00
46614;BME280;32338;50.430;6.806;2023-02-21T03:31:15;65514.22;;;0.88;100.00
46614;BME280;32338;50.430;6.806;2023-02-21T03:33:42;65518.28;;;0.87;100.00
46614;BME280;32338;50.430;6.806;2023-02-21T03:36:10;65525.53;;;0.94;100.00
46614;BME280;32338;50.430;6.806;2023-02-21T03:38:38;65529.66;;;1.00;100.00
46614;BME280;32338;50.430;6.806;2023-02-21T03:41:05;65526.84;;;0.97;100.00
46614;BME280;32338;50.430;6.806;2023-02-21T03:43:33;65509.19;;;0.84;100.00
46614;BME280;32338;50.430;6.806;2023-02-21T03:46:00;65499.84;;;0.70;100.00
46614;BME280;32338;50.430;6.806;2023-02-21T03:48:26;65485.53;;;0.59;100.00
46614;BME280;32338;50.430;6.806;2023-02-21T03:50:53;65489.25;;;0.60;100.00
46614;BME280;32338;50.430;6.806;2023-02-21T03:53:20;65495.94;;;0.67;100.00
46614;BME280;32338;50.430;6.806;2023-02-21T03:55:48;65502.84;;;0.75;100.00
46614;BME280;32338;50.430;6.806;2023-02-21T03:58:14;65495.03;;;0.68;100.00
46614;BME280;32338;50.430;6.806;2023-02-21T04:00:41;65497.28;;;0.70;100.00
46614;BME280;32338;50.430;6.806;2023-02-21T04:03:08;65487.00;;;0.58;100.00
46614;BME280;32338;50.430;6.806;2023-02-21T04:05:35;65479.75;;;0.52;100.00
46614;BME280;32338;50.430;6.806;2023-02-21T04:08:02;65484.56;;;0.54;100.00
46614;BME280;32338;50.430;6.806;2023-02-21T04:10:30;65485.75;;;0.62;100.00
46614;BME280;32338;50.430;6.806;2023-02-21T04:12:58;65486.09;;;0.60;100.00
46614;BME280;32338;50.430;6.806;2023-02-21T04:15:24;65486.25;;;0.55;100.00
46614;BME280;32338;50.430;6.806;2023-02-21T04:17:51;65461.75;;;0.40;100.00
46614;BME280;32338;50.430;6.806;2023-02-21T04:20:18;65457.41;;;0.31;100.00
46614;BME280;32338;50.430;6.806;2023-02-21T04:22:44;65460.97;;;0.37;100.00
46614;BME280;32338;50.430;6.806;2023-02-21T04:25:11;65465.31;;;0.45;100.00
46614;BME280;32338;50.430;6.806;2023-02-21T04:27:38;65475.72;;;0.53;100.00
46614;BME280;32338;50.430;6.806;2023-02-21T04:30:07;65484.63;;;0.61;100.00
46614;BME280;32338;50.430;6.806;2023-02-21T04:32:34;65491.47;;;0.62;100.00
46614;BME280;32338;50.430;6.806;2023-02-21T04:35:01;65488.88;;;0.62;100.00
46614;BME280;32338;50.430;6.806;2023-02-21T04:37:27;65495.94;;;0.67;100.00
46614;BME280;32338;50.430;6.806;2023-02-21T04:39:54;65492.03;;;0.63;100.00
46614;BME280;32338;50.430;6.806;2023-02-21T04:42:20;65481.41;;;0.53;100.00
46614;BME280;32338;50.430;6.806;2023-02-21T04:44:47;65461.53;;;0.37;100.00
46614;BME280;32338;50.430;6.806;2023-02-21T04:47:15;65451.34;;;0.32;100.00
46614;BME280;32338;50.430;6.806;2023-02-21T04:49:42;65468.03;;;0.41;100.00
46614;BME280;32338;50.430;6.806;2023-02-21T04:52:08;65468.81;;;0.44;100.00
46614;BME280;32338;50.430;6.806;2023-02-21T04:54:35;65475.28;;;0.47;100.00
46614;BME280;32338;50.430;6.806;2023-02-21T04:57:02;65475.47;;;0.50;100.00
46614;BME280;32338;50.430;6.806;2023-02-21T04:59:28;65470.69;;;0.48;100.00
46614;BME280;32338;50.430;6.806;2023-02-21T05:01:55;65465.22;;;0.38;100.00
46614;BME280;32338;50.430;6.806;2023-02-21T05:04:23;65448.81;;;0.21;100.00
46614;BME280;32338;50.430;6.806;2023-02-21T05:06:50;65446.81;;;0.21;100.00
46614;BME280;32338;50.430;6.806;2023-02-21T05:09:16;65448.13;;;0.25;100.00
46614;BME280;32338;50.430;6.806;2023-02-21T05:11:43;65448.13;;;0.25;100.00
46614;BME280;32338;50.430;6.806;2023-02-21T05:14:09;65442.75;;;0.22;100.00
46614;BME280;32338;50.430;6.806;2023-02-21T05:16:36;65442.56;;;0.20;100.00
46614;BME280;32338;50.430;6.806;2023-02-21T05:19:03;65442.22;;;0.22;100.00
46614;BME280;32338;50.430;6.806;2023-02-21T05:21:33;65445.34;;;0.22;100.00
46614;BME280;32338;50.430;6.806;2023-02-21T05:24:01;65441.78;;;0.17;100.00
46614;BME280;32338;50.430;6.806;2023-02-21T05:26:33;65430.63;;;0.06;100.00
46614;BME280;32338;50.430;6.806;2023-02-21T05:29:00;65435.31;;;0.13;100.00
46614;BME280;32338;50.430;6.806;2023-02-21T05:31:27;65441.22;;;0.16;100.00
46614;BME280;32338;50.430;6.806;2023-02-21T05:33:53;65442.00;;;0.19;100.00
46614;BME280;32338;50.430;6.806;2023-02-21T05:36:20;65441.66;;;0.21;100.00
46614;BME280;32338;50.430;6.806;2023-02-21T05:38:52;65433.44;;;0.09;100.00
46614;BME280;32338;50.430;6.806;2023-02-21T05:41:20;65412.97;;;-0.08;100.00
46614;BME280;32338;50.430;6.806;2023-02-21T05:43:47;65408.84;;;-0.14;100.00
46614;BME280;32338;50.430;6.806;2023-02-21T05:46:20;65405.19;;;-0.15;100.00
46614;BME280;32338;50.430;6.806;2023-02-21T05:48:48;65412.97;;;-0.08;100.00
46614;BME280;32338;50.430;6.806;2023-02-21T05:51:15;65414.66;;;-0.06;100.00
46614;BME280;32338;50.430;6.806;2023-02-21T05:53:42;65410.75;;;-0.10;100.00
46614;BME280;32338;50.430;6.806;2023-02-21T05:56:10;65414.44;;;-0.09;100.00
46614;BME280;32338;50.430;6.806;2023-02-21T05:58:37;65408.50;;;-0.12;100.00
46614;BME280;32338;50.430;6.806;2023-02-21T06:01:05;65399.25;;;-0.18;100.00
46614;BME280;32338;50.430;6.806;2023-02-21T06:03:32;65402.50;;;-0.22;100.00
46614;BME280;32338;50.430;6.806;2023-02-21T06:05:59;65382.84;;;-0.36;100.00
46614;BME280;32338;50.430;6.806;2023-02-21T06:08:26;65372.47;;;-0.43;100.00
46614;BME280;32338;50.430;6.806;2023-02-21T06:10:52;65374.38;;;-0.39;100.00
46614;BME280;32338;50.430;6.806;2023-02-21T06:13:21;65383.19;;;-0.38;100.00
46614;BME280;32338;50.430;6.806;2023-02-21T06:15:47;65393.13;;;-0.24;100.00
46614;BME280;32338;50.430;6.806;2023-02-21T06:18:15;65393.25;;;-0.28;100.00
46614;BME280;32338;50.430;6.806;2023-02-21T06:20:42;65382.09;;;-0.39;100.00
46614;BME280;32338;50.430;6.806;2023-02-21T06:23:09;65394.78;;;-0.22;100.00
46614;BME280;32338;50.430;6.806;2023-02-21T06:25:36;65393.25;;;-0.28;100.00
46614;BME280;32338;50.430;6.806;2023-02-21T06:28:03;65396.25;;;-0.23;100.00
46614;BME280;32338;50.430;6.806;2023-02-21T06:30:31;65400.38;;;-0.17;100.00
46614;BME280;32338;50.430;6.806;2023-02-21T06:32:58;65406.63;;;-0.16;100.00
46614;BME280;32338;50.430;6.806;2023-02-21T06:35:24;65403.16;;;-0.14;100.00
46614;BME280;32338;50.430;6.806;2023-02-21T06:37:51;65402.16;;;-0.20;100.00
46614;BME280;32338;50.430;6.806;2023-02-21T06:40:18;65404.41;;;-0.18;100.00
46614;BME280;32338;50.430;6.806;2023-02-21T06:42:45;65408.19;;;-0.10;100.00
46614;BME280;32338;50.430;6.806;2023-02-21T06:45:11;65416.66;;;-0.07;100.00
46614;BME280;32338;50.430;6.806;2023-02-21T06:47:39;65411.84;;;-0.09;100.00
46614;BME280;32338;50.430;6.806;2023-02-21T06:50:06;65399.78;;;-0.18;100.00
46614;BME280;32338;50.430;6.806;2023-02-21T06:52:33;65405.94;;;-0.12;100.00
46614;BME280;32338;50.430;6.806;2023-02-21T06:55:00;65437.19;;;0.17;100.00
46614;BME280;32338;50.430;6.806;2023-02-21T06:57:26;65443.13;;;0.20;100.00
46614;BME280;32338;50.430;6.806;2023-02-21T06:59:53;65444.59;;;0.19;100.00
46614;BME280;32338;50.430;6.806;2023-02-21T07:02:19;65435.31;;;0.13;100.00
46614;BME280;32338;50.430;6.806;2023-02-21T07:04:47;65428.59;;;0.07;100.00
46614;BME280;32338;50.430;6.806;2023-02-21T07:07:15;65437.88;;;0.13;100.00
46614;BME280;32338;50.430;6.806;2023-02-21T07:09:42;65439.44;;;0.19;100.00
46614;BME280;32338;50.430;6.806;2023-02-21T07:12:08;65461.88;;;0.35;100.00
46614;BME280;32338;50.430;6.806;2023-02-21T07:14:35;65463.41;;;0.41;100.00
46614;BME280;32338;50.430;6.806;2023-02-21T07:17:02;65463.56;;;0.37;100.00
46614;BME280;32338;50.430;6.806;2023-02-21T07:19:28;65450.38;;;0.27;100.00
46614;BME280;32338;50.430;6.806;2023-02-21T07:21:56;65432.16;;;0.12;100.00
46614;BME280;32338;50.430;6.806;2023-02-21T07:24:23;65432.16;;;0.12;100.00
46614;BME280;32338;50.430;6.806;2023-02-21T07:26:50;65432.63;;;0.06;100.00
46614;BME280;32338;50.430;6.806;2023-02-21T07:29:16;65434.88;;;0.08;100.00
46614;BME280;32338;50.430;6.806;2023-02-21T07:31:43;65425.25;;;0.04;100.00
46614;BME280;32338;50.430;6.806;2023-02-21T07:34:10;65425.25;;;0.04;100.00
46614;BME280;32338;50.430;6.806;2023-02-21T07:36:37;65423.94;;;0.00;100.00
46614;BME280;32338;50.430;6.806;2023-02-21T07:39:06;65434.94;;;0.15;100.00
46614;BME280;32338;50.430;6.806;2023-02-21T07:41:32;65451.84;;;0.26;100.00
46614;BME280;32338;50.430;6.806;2023-02-21T07:43:59;65451.28;;;0.25;100.00
46614;BME280;32338;50.430;6.806;2023-02-21T07:46:28;65454.28;;;0.30;100.00
46614;BME280;32338;50.430;6.806;2023-02-21T07:48:55;65453.91;;;0.32;100.00
46614;BME280;32338;50.430;6.806;2023-02-21T07:51:26;65470.25;;;0.43;100.00
46614;BME280;32338;50.430;6.806;2023-02-21T07:53:53;65472.47;;;0.45;100.00
46614;BME280;32338;50.430;6.806;2023-02-21T07:56:21;65484.09;;;0.60;100.00
46614;BME280;32338;50.430;6.806;2023-02-21T07:58:48;65494.13;;;0.70;100.00
46614;BME280;32338;50.430;6.806;2023-02-21T08:01:15;65488.13;;;0.59;100.00
46614;BME280;32338;50.430;6.806;2023-02-21T08:03:41;65491.69;;;0.65;100.00
46614;BME280;32338;50.430;6.806;2023-02-21T08:06:09;65509.13;;;0.76;100.00
46614;BME280;32338;50.430;6.806;2023-02-21T08:08:35;65515.47;;;0.85;100.00
46614;BME280;32338;50.430;6.806;2023-02-21T08:11:02;65529.78;;;0.95;100.00
46614;BME280;32338;50.430;6.806;2023-02-21T08:13:30;65542.84;;;1.10;100.00
46614;BME280;32338;50.430;6.806;2023-02-21T08:15:57;65573.03;;;1.38;100.00
46614;BME280;32338;50.430;6.806;2023-02-21T08:18:24;65590.00;;;1.56;100.00
46614;BME280;32338;50.430;6.806;2023-02-21T08:20:51;65616.25;;;1.80;100.00
46614;BME280;32338;50.430;6.806;2023-02-21T08:23:18;65613.13;;;1.80;100.00
46614;BME280;32338;50.430;6.806;2023-02-21T08:25:45;65624.09;;;1.87;100.00
46614;BME280;32338;50.430;6.806;2023-02-21T08:28:13;65639.88;;;1.97;100.00
46614;BME280;32338;50.430;6.806;2023-02-21T08:30:41;65639.53;;;1.99;100.00
46614;BME280;32338;50.430;6.806;2023-02-21T08:33:08;65644.97;;;2.09;100.00
46614;BME280;32338;50.430;6.806;2023-02-21T08:35:35;65655.59;;;2.19;100.00
46614;BME280;32338;50.430;6.806;2023-02-21T08:38:01;65666.03;;;2.26;100.00
46614;BME280;32338;50.430;6.806;2023-02-21T08:40:29;65682.44;;;2.43;100.00
46614;BME280;32338;50.430;6.806;2023-02-21T08:42:58;65693.22;;;2.49;100.00
46614;BME280;32338;50.430;6.806;2023-02-21T08:45:26;65691.19;;;2.49;100.00
46614;BME280;32338;50.430;6.806;2023-02-21T08:47:55;65692.72;;;2.55;100.00
46614;BME280;32338;50.430;6.806;2023-02-21T08:50:24;65707.97;;;2.65;100.00
46614;BME280;32338;50.430;6.806;2023-02-21T08:52:51;65708.06;;;2.72;100.00
46614;BME280;32338;50.430;6.806;2023-02-21T08:55:19;65733.16;;;2.88;100.00
46614;BME280;32338;50.430;6.806;2023-02-21T08:57:47;65733.91;;;2.91;100.00
46614;BME280;32338;50.430;6.806;2023-02-21T09:00:15;65754.75;;;3.05;100.00
46614;BME280;32338;50.430;6.806;2023-02-21T09:02:42;65764.72;;;3.19;100.00
46614;BME280;32338;50.430;6.806;2023-02-21T09:05:13;65787.94;;;3.31;100.00
46614;BME280;32338;50.430;6.806;2023-02-21T09:07:40;65783.53;;;3.34;100.00
46614;BME280;32338;50.430;6.806;2023-02-21T09:10:09;65808.50;;;3.55;100.00
46614;BME280;32338;50.430;6.806;2023-02-21T09:12:35;65819.91;;;3.68;100.00
46614;BME280;32338;50.430;6.806;2023-02-21T09:15:03;65837.06;;;3.81;100.00
46614;BME280;32338;50.430;6.806;2023-02-21T09:17:30;65848.69;;;3.97;100.00
46614;BME280;32338;50.430;6.806;2023-02-21T09:19:58;65870.69;;;4.12;100.00
46614;BME280;32338;50.430;6.806;2023-02-21T09:22:27;65878.38;;;4.24;100.00
46614;BME280;32338;50.430;6.806;2023-02-21T09:24:55;65887.13;;;4.30;100.00
46614;BME280;32338;50.430;6.806;2023-02-21T09:27:22;65920.53;;;4.58;100.00
46614;BME280;32338;50.430;6.806;2023-02-21T09:30:02;65915.91;;;4.59;100.00
46614;BME280;32338;50.430;6.806;2023-02-21T09:32:29;65951.03;;;4.89;100.00
46614;BME280;32338;50.430;6.806;2023-02-21T09:34:56;65964.84;;;4.99;100.00
46614;BME280;32338;50.430;6.806;2023-02-21T09:37:22;65982.22;;;5.15;100.00
46614;BME280;32338;50.430;6.806;2023-02-21T09:39:51;65977.94;;;5.13;100.00
46614;BME280;32338;50.430;6.806;2023-02-21T09:42:18;65997.75;;;5.34;100.00
46614;BME280;32338;50.430;6.806;2023-02-21T09:44:47;65998.31;;;5.34;100.00
46614;BME280;32338;50.430;6.806;2023-02-21T09:47:18;66035.50;;;5.64;100.00
46614;BME280;32338;50.430;6.806;2023-02-21T09:49:58;66038.16;;;5.71;100.00
46614;BME280;32338;50.430;6.806;2023-02-21T09:52:30;66053.66;;;5.83;100.00
46614;BME280;32338;50.430;6.806;2023-02-21T09:55:02;66051.78;;;5.79;100.00
46614;BME280;32338;50.430;6.806;2023-02-21T09:57:30;66065.03;;;5.89;100.00
46614;BME280;32338;50.430;6.806;2023-02-21T09:59:57;66061.16;;;5.92;100.00
46614;BME280;32338;50.430;6.806;2023-02-21T10:02:37;66082.09;;;6.07;100.00
46614;BME280;32338;50.430;6.806;2023-02-21T10:05:12;66092.75;;;6.16;100.00
46614;BME280;32338;50.430;6.806;2023-02-21T10:07:45;66095.56;;;6.19;100.00
46614;BME280;32338;50.430;6.806;2023-02-21T10:10:17;66113.56;;;6.43;100.00
46614;BME280;32338;50.430;6.806;2023-02-21T10:12:51;66129.06;;;6.55;100.00
46614;BME280;32338;50.430;6.806;2023-02-21T10:15:29;66141.44;;;6.66;100.00
46614;BME280;32338;50.430;6.806;2023-02-21T10:18:02;66138.06;;;6.63;100.00
46614;BME280;32338;50.430;6.806;2023-02-21T10:20:34;66150.41;;;6.74;100.00
46614;BME280;32338;50.430;6.806;2023-02-21T10:23:06;66165.03;;;6.88;100.00
46614;BME280;32338;50.430;6.806;2023-02-21T10:25:41;66162.91;;;6.81;100.00
46614;BME280;32338;50.430;6.806;2023-02-21T10:28:16;66157.72;;;6.81;100.00
46614;BME280;32338;50.430;6.806;2023-02-21T10:30:43;66175.06;;;6.90;100.00
46614;BME280;32338;50.430;6.806;2023-02-21T10:33:11;66175.13;;;6.97;100.00
46614;BME280;32338;50.430;6.806;2023-02-21T10:35:38;66186.72;;;7.05;100.00
46614;BME280;32338;50.430;6.806;2023-02-21T10:38:06;66199.63;;;7.17;100.00
46614;BME280;32338;50.430;6.806;2023-02-21T10:40:37;66215.03;;;7.34;100.00
46614;BME280;32338;50.430;6.806;2023-02-21T10:43:10;66241.78;;;7.56;100.00
46614;BME280;32338;50.430;6.806;2023-02-21T10:45:41;66243.88;;;7.62;100.00
46614;BME280;32338;50.430;6.806;2023-02-21T10:48:11;66253.59;;;7.67;100.00
46614;BME280;32338;50.430;6.806;2023-02-21T10:50:43;66266.69;;;7.81;100.00
46614;BME280;32338;50.430;6.806;2023-02-21T10:53:27;66266.16;;;7.81;100.00
46614;BME280;32338;50.430;6.806;2023-02-21T10:56:20;66285.06;;;7.95;100.00
46614;BME280;32338;50.430;6.806;2023-02-21T10:58:51;66289.38;;;8.04;100.00
46614;BME280;32338;50.430;6.806;2023-02-21T11:01:19;66296.50;;;8.08;100.00
46614;BME280;32338;50.430;6.806;2023-02-21T11:03:49;66309.44;;;8.20;100.00
46614;BME280;32338;50.430;6.806;2023-02-21T11:06:26;66338.81;;;8.42;100.00
46614;BME280;32338;50.430;6.806;2023-02-21T11:08:58;66339.59;;;8.46;100.00
46614;BME280;32338;50.430;6.806;2023-02-21T11:11:35;66352.00;;;8.57;100.00
46614;BME280;32338;50.430;6.806;2023-02-21T11:14:22;66362.69;;;8.67;100.00
46614;BME280;32338;50.430;6.806;2023-02-21T11:17:10;66373.56;;;8.79;100.00
46614;BME280;32338;50.430;6.806;2023-02-21T11:19:46;66426.06;;;9.22;100.00
46614;BME280;32338;50.430;6.806;2023-02-21T11:22:13;66402.47;;;9.08;100.00
46614;BME280;32338;50.430;6.806;2023-02-21T11:24:46;66399.66;;;9.05;100.00
46614;BME280;32338;50.430;6.806;2023-02-21T11:27:15;66404.69;;;9.03;100.00
46614;BME280;32338;50.430;6.806;2023-02-21T11:29:45;66386.91;;;8.96;100.00
46614;BME280;32338;50.430;6.806;2023-02-21T11:32:22;66426.44;;;9.28;100.00
46614;BME280;32338;50.430;6.806;2023-02-21T11:34:49;66426.09;;;9.30;100.00
46614;BME280;32338;50.430;6.806;2023-02-21T11:37:16;66469.59;;;9.65;100.00
46614;BME280;32338;50.430;6.806;2023-02-21T11:39:49;66479.16;;;9.73;100.00
46614;BME280;32338;50.430;6.806;2023-02-21T11:42:27;66495.13;;;9.90;100.00
46614;BME280;32338;50.430;6.806;2023-02-21T11:45:19;66515.78;;;10.07;100.00
46614;BME280;32338;50.430;6.806;2023-02-21T11:47:54;66574.00;;;10.63;100.00
46614;BME280;32338;50.430;6.806;2023-02-21T11:50:25;66572.13;;;10.59;100.00
46614;BME280;32338;50.430;6.806;2023-02-21T11:52:58;66598.97;;;10.81;100.00
46614;BME280;32338;50.430;6.806;2023-02-21T11:55:26;66616.28;;;11.01;100.00
46614;BME280;32338;50.430;6.806;2023-02-21T11:58:00;66640.50;;;11.24;100.00
46614;BME280;32338;50.430;6.806;2023-02-21T12:00:37;66619.66;;;11.05;100.00
46614;BME280;32338;50.430;6.806;2023-02-21T12:03:29;66634.88;;;11.18;100.00
46614;BME280;32338;50.430;6.806;2023-02-21T12:06:04;66647.84;;;11.30;100.00
46614;BME280;32338;50.430;6.806;2023-02-21T12:08:38;66664.19;;;11.45;100.00
46614;BME280;32338;50.430;6.806;2023-02-21T12:11:25;66667.59;;;11.48;100.00
46614;BME280;32338;50.430;6.806;2023-02-21T12:14:02;66681.47;;;11.59;100.00
46614;BME280;32338;50.430;6.806;2023-02-21T12:16:39;66710.25;;;11.85;100.00
46614;BME280;32338;50.430;6.806;2023-02-21T12:19:30;66776.66;;;12.51;100.00
46614;BME280;32338;50.430;6.806;2023-02-21T12:22:08;66792.81;;;12.63;100.00
46614;BME280;32338;50.430;6.806;2023-02-21T12:24:46;66791.31;;;12.57;100.00
46614;BME280;32338;50.430;6.806;2023-02-21T12:27:21;66796.03;;;12.63;100.00
46614;BME280;32338;50.430;6.806;2023-02-21T12:30:07;66800.53;;;12.68;100.00
46614;BME280;32338;50.430;6.806;2023-02-21T12:32:48;66799.03;;;12.69;100.00
46614;BME280;32338;50.430;6.806;2023-02-21T12:38:30;66836.13;;;13.00;100.00
46614;BME280;32338;50.430;6.806;2023-02-21T12:41:08;66855.88;;;13.18;100.00
46614;BME280;32338;50.430;6.806;2023-02-21T12:43:48;66862.47;;;13.22;100.00
46614;BME280;32338;50.430;6.806;2023-02-21T12:46:20;66865.69;;;13.29;100.00
46614;BME280;32338;50.430;6.806;2023-02-21T12:48:55;66894.88;;;13.54;100.00
46614;BME280;32338;50.430;6.806;2023-02-21T12:51:27;66898.44;;;13.59;100.00
46614;BME280;32338;50.430;6.806;2023-02-21T12:54:00;66932.34;;;13.90;100.00
46614;BME280;32338;50.430;6.806;2023-02-21T12:56:30;66854.38;;;13.19;100.00
46614;BME280;32338;50.430;6.806;2023-02-21T12:59:01;66915.59;;;13.77;100.00
46614;BME280;32338;50.430;6.806;2023-02-21T13:01:31;66878.88;;;13.44;100.00
46614;BME280;32338;50.430;6.806;2023-02-21T13:04:10;66845.91;;;13.11;100.00
46614;BME280;32338;50.430;6.806;2023-02-21T13:06:45;66926.13;;;13.85;100.00
46614;BME280;32338;50.430;6.806;2023-02-21T13:09:21;66934.59;;;13.92;100.00
46614;BME280;32338;50.430;6.806;2023-02-21T13:11:58;67036.75;;;14.83;100.00
46614;BME280;32338;50.430;6.806;2023-02-21T13:14:30;67056.53;;;15.01;89.81
46614;BME280;32338;50.430;6.806;2023-02-21T13:16:58;66996.00;;;14.53;96.37
46614;BME280;32338;50.430;6.806;2023-02-21T13:19:39;67070.69;;;15.21;89.58
46614;BME280;32338;50.430;6.806;2023-02-21T13:22:10;67037.69;;;14.89;96.69
46614;BME280;32338;50.430;6.806;2023-02-21T13:24:50;67029.94;;;14.77;93.18
46614;BME280;32338;50.430;6.806;2023-02-21T13:30:27;67008.06;;;14.59;87.44
46614;BME280;32338;50.430;6.806;2023-02-21T13:33:03;67091.41;;;15.38;78.76
46614;BME280;32338;50.430;6.806;2023-02-21T13:35:34;67063.13;;;15.12;80.13
46614;BME280;32338;50.430;6.806;2023-02-21T13:38:04;67088.59;;;15.35;90.41